Time;durP1;ratioP1;P1;durP2;ratioP2;P2;SDS_P1;SDS_P2;PMS_P1;PMS_P2;Temp;Humidity;BMP_temperature;BMP_pressure;BME280_temperature;BME280_humidity;BME280_pressure;Samples;Min_cycle;Max_cycle;Signal;HPM_P1;HPM_P2
2021/01/23 00:01:04;;;;;;;2.00;1.90;;;19.70;42.70;;;;;;4971925;28;21067;-66
2021/01/23 00:03:31;;;;;;;3.63;1.90;;;19.70;42.60;;;;;;4988006;28;20555;-67
2021/01/23 00:05:57;;;;;;;3.40;1.67;;;19.80;42.70;;;;;;4989410;28;20473;-67
2021/01/23 00:08:23;;;;;;;4.13;1.97;;;19.80;42.90;;;;;;4989567;28;21332;-67
2021/01/23 00:10:49;;;;;;;2.33;2.10;;;19.80;42.40;;;;;;4989130;28;21498;-67
2021/01/23 00:13:15;;;;;;;5.20;2.17;;;19.90;42.40;;;;;;4990346;28;20550;-67
2021/01/23 00:15:41;;;;;;;2.70;2.07;;;19.90;42.30;;;;;;4991396;28;20477;-67
2021/01/23 00:18:09;;;;;;;2.13;2.03;;;19.90;42.40;;;;;;4990505;28;20492;-67
2021/01/23 00:20:35;;;;;;;1.93;1.83;;;19.80;42.40;;;;;;4990851;28;20500;-67
2021/01/23 00:23:01;;;;;;;5.90;2.40;;;19.80;42.40;;;;;;4989929;28;20531;-67
2021/01/23 00:25:27;;;;;;;4.00;2.30;;;19.80;42.40;;;;;;4986199;28;20493;-67
2021/01/23 00:27:53;;;;;;;2.40;2.30;;;19.80;42.40;;;;;;4995424;28;20540;-67
2021/01/23 00:30:20;;;;;;;1.80;1.70;;;19.80;42.50;;;;;;4990698;28;20491;-67
2021/01/23 00:32:46;;;;;;;2.60;2.17;;;19.70;42.30;;;;;;4990485;28;20472;-66
2021/01/23 00:35:14;;;;;;;2.13;2.03;;;19.70;42.30;;;;;;4991605;28;20484;-67
2021/01/23 00:37:41;;;;;;;2.03;1.93;;;19.70;42.30;;;;;;4984510;28;20483;-66
2021/01/23 00:40:08;;;;;;;2.23;2.13;;;19.70;42.30;;;;;;4993505;28;20587;-67
2021/01/23 00:42:34;;;;;;;2.90;2.20;;;19.70;42.40;;;;;;4992929;28;20478;-67
2021/01/23 00:45:00;;;;;;;1.80;1.70;;;19.70;42.40;;;;;;4989758;28;20505;-67
2021/01/23 00:47:26;;;;;;;3.83;2.20;;;19.70;42.40;;;;;;4996004;28;20492;-66
2021/01/23 00:49:52;;;;;;;6.33;2.87;;;19.70;42.40;;;;;;4987938;28;20844;-67
2021/01/23 00:52:19;;;;;;;3.07;2.07;;;19.70;42.40;;;;;;4999063;28;20476;-65
2021/01/23 00:54:46;;;;;;;2.13;1.77;;;19.70;42.40;;;;;;4989460;28;20550;-66
2021/01/23 00:57:12;;;;;;;1.97;1.83;;;19.70;43.20;;;;;;4985163;28;20510;-67
2021/01/23 00:59:38;;;;;;;4.40;1.87;;;19.60;42.30;;;;;;4989539;28;20485;-66
2021/01/23 01:02:04;;;;;;;5.10;2.27;;;19.70;42.20;;;;;;4992344;28;21019;-67
2021/01/23 01:04:30;;;;;;;2.47;2.27;;;19.70;42.20;;;;;;4993052;28;20492;-66
2021/01/23 01:06:56;;;;;;;8.83;2.80;;;19.70;42.00;;;;;;4994362;28;20497;-66
2021/01/23 01:09:23;;;;;;;2.20;2.00;;;19.70;42.00;;;;;;4990875;28;20554;-67
2021/01/23 01:11:49;;;;;;;4.80;1.97;;;19.70;41.90;;;;;;4993821;28;21114;-66
2021/01/23 01:14:16;;;;;;;4.40;2.43;;;19.70;42.20;;;;;;4990457;28;20541;-67
2021/01/23 01:16:42;;;;;;;2.57;2.17;;;19.70;42.20;;;;;;4980980;28;20943;-67
2021/01/23 01:19:08;;;;;;;2.40;2.30;;;19.70;42.20;;;;;;4974203;28;20470;-67
2021/01/23 01:21:34;;;;;;;3.57;2.73;;;19.70;42.20;;;;;;4999429;28;20477;-66
2021/01/23 01:24:01;;;;;;;2.70;2.40;;;19.60;42.10;;;;;;4989726;28;20492;-66
2021/01/23 01:26:28;;;;;;;2.37;2.27;;;19.60;42.10;;;;;;4991998;28;20489;-66
2021/01/23 01:28:54;;;;;;;1.77;1.67;;;19.60;42.10;;;;;;4992229;28;20484;-67
2021/01/23 01:31:21;;;;;;;2.53;2.03;;;19.60;42.10;;;;;;4992276;28;20513;-67
2021/01/23 01:33:47;;;;;;;1.60;1.50;;;19.60;42.20;;;;;;4998668;28;20484;-67
2021/01/23 01:36:13;;;;;;;3.70;1.90;;;19.60;42.10;;;;;;4993851;28;20480;-68
2021/01/23 01:38:39;;;;;;;2.40;1.70;;;19.60;41.80;;;;;;4996987;28;20481;-67
2021/01/23 01:41:06;;;;;;;3.40;3.23;;;19.60;41.60;;;;;;4993827;28;20500;-67
2021/01/23 01:43:33;;;;;;;4.47;2.90;;;19.70;41.80;;;;;;4992701;28;20489;-67
2021/01/23 01:45:59;;;;;;;2.93;2.47;;;19.70;41.90;;;;;;4991944;28;20484;-67
2021/01/23 01:48:25;;;;;;;2.00;1.83;;;19.70;41.80;;;;;;4999341;28;20496;-67
2021/01/23 01:50:52;;;;;;;3.60;2.40;;;19.70;41.70;;;;;;4996687;28;20779;-67
2021/01/23 01:53:21;;;;;;;2.50;2.30;;;19.70;41.30;;;;;;4995261;28;20492;-68
2021/01/23 01:55:47;;;;;;;2.43;2.03;;;19.70;41.50;;;;;;4989511;28;20964;-67
2021/01/23 01:58:14;;;;;;;2.23;2.03;;;19.60;41.70;;;;;;4991199;28;20499;-67
2021/01/23 02:00:41;;;;;;;2.73;2.10;;;19.70;41.90;;;;;;4995249;28;20492;-67
2021/01/23 02:03:26;;;;;;;3.30;2.27;;;19.60;41.80;;;;;;4982209;28;20489;-67
2021/01/23 02:05:59;;;;;;;2.97;2.20;;;19.60;41.90;;;;;;4982937;28;20473;-67
2021/01/23 02:08:30;;;;;;;3.00;2.33;;;19.60;42.00;;;;;;5007149;28;20478;-67
2021/01/23 02:11:03;;;;;;;2.17;1.97;;;19.60;42.00;;;;;;4992359;28;20484;-68
2021/01/23 02:13:30;;;;;;;2.83;2.50;;;19.60;42.10;;;;;;4993113;28;21001;-67
2021/01/23 02:16:00;;;;;;;3.87;2.97;;;19.50;41.90;;;;;;4990312;28;20573;-67
2021/01/23 02:18:29;;;;;;;2.33;2.23;;;19.50;42.00;;;;;;4992587;28;20488;-67
2021/01/23 02:21:17;;;;;;;2.60;2.40;;;19.50;41.90;;;;;;4991215;28;21246;-67
2021/01/23 02:23:45;;;;;;;2.73;2.47;;;19.50;41.80;;;;;;4979618;28;20468;-66
2021/01/23 02:26:13;;;;;;;3.00;2.77;;;19.50;41.50;;;;;;4997013;28;20491;-67
2021/01/23 02:29:08;;;;;;;2.37;2.20;;;19.50;41.50;;;;;;4982002;28;20476;-68
2021/01/23 02:31:37;;;;;;;3.13;2.53;;;19.60;41.70;;;;;;4980802;28;20477;-67
2021/01/23 02:34:03;;;;;;;2.50;2.40;;;19.50;41.50;;;;;;4985045;28;20480;-67
2021/01/23 02:36:29;;;;;;;2.73;2.37;;;19.50;41.40;;;;;;4991458;28;20487;-67
2021/01/23 02:38:56;;;;;;;2.40;2.30;;;19.50;41.70;;;;;;4992515;28;20493;-68
2021/01/23 02:41:22;;;;;;;3.40;2.20;;;19.50;41.70;;;;;;4993007;28;21009;-67
2021/01/23 02:43:48;;;;;;;2.60;2.50;;;19.50;42.00;;;;;;4992240;28;20543;-68
2021/01/23 02:46:15;;;;;;;3.43;2.17;;;19.50;42.00;;;;;;4993725;28;21427;-68
2021/01/23 02:48:42;;;;;;;2.90;2.70;;;19.50;41.90;;;;;;4991344;28;21182;-67
2021/01/23 02:51:11;;;;;;;2.50;2.40;;;19.50;41.90;;;;;;4992181;28;20501;-65
2021/01/23 02:53:37;;;;;;;3.07;2.80;;;19.50;41.90;;;;;;4994512;28;20488;-66
2021/01/23 02:56:07;;;;;;;3.07;2.70;;;19.50;42.00;;;;;;4993860;28;21650;-66
2021/01/23 02:58:34;;;;;;;2.63;2.47;;;19.50;41.90;;;;;;4992460;28;20889;-66
2021/01/23 03:01:00;;;;;;;2.77;2.57;;;19.50;42.00;;;;;;4989048;28;20482;-66
2021/01/23 03:03:27;;;;;;;4.00;2.07;;;19.50;42.00;;;;;;4991761;28;20492;-66
2021/01/23 03:05:54;;;;;;;2.93;2.70;;;19.50;42.00;;;;;;4990333;28;20483;-66
2021/01/23 03:08:20;;;;;;;3.30;2.90;;;19.50;42.00;;;;;;4992419;28;20484;-66
2021/01/23 03:10:46;;;;;;;1.93;1.83;;;19.50;42.00;;;;;;4990628;28;20476;-66
2021/01/23 03:13:13;;;;;;;3.00;2.80;;;19.50;42.00;;;;;;4989417;28;20574;-66
2021/01/23 03:15:39;;;;;;;4.20;3.10;;;19.50;42.00;;;;;;4991725;28;20499;-67
2021/01/23 03:18:06;;;;;;;3.57;2.47;;;19.50;41.80;;;;;;5002432;28;20496;-66
2021/01/23 03:20:32;;;;;;;3.17;2.33;;;19.40;41.60;;;;;;4985310;28;20515;-67
2021/01/23 03:22:59;;;;;;;2.50;2.40;;;19.50;41.50;;;;;;4996426;28;20495;-66
2021/01/23 03:25:26;;;;;;;2.23;2.17;;;19.50;41.50;;;;;;4990845;28;20489;-67
2021/01/23 03:27:52;;;;;;;3.17;2.87;;;19.50;41.40;;;;;;4993392;28;20500;-67
2021/01/23 03:30:19;;;;;;;3.43;2.80;;;19.50;41.50;;;;;;4988728;28;20480;-66
2021/01/23 03:32:45;;;;;;;4.40;3.03;;;19.50;41.60;;;;;;4990762;28;20543;-66
2021/01/23 03:35:12;;;;;;;2.67;2.50;;;19.50;41.70;;;;;;4992241;28;20495;-66
2021/01/23 03:37:38;;;;;;;2.70;2.50;;;19.50;41.60;;;;;;4990691;28;21298;-66
2021/01/23 03:40:06;;;;;;;4.23;2.23;;;19.50;41.90;;;;;;4992654;28;20996;-65
2021/01/23 03:42:33;;;;;;;4.30;2.40;;;19.50;41.70;;;;;;4991871;28;20501;-67
2021/01/23 03:44:59;;;;;;;3.40;3.10;;;19.40;41.80;;;;;;4990304;28;20883;-66
2021/01/23 03:47:25;;;;;;;2.47;2.27;;;19.50;42.00;;;;;;4990860;28;20493;-67
2021/01/23 03:49:51;;;;;;;3.13;2.73;;;19.40;41.70;;;;;;4992274;28;20566;-67
2021/01/23 03:52:17;;;;;;;3.07;2.87;;;19.50;41.50;;;;;;4991406;28;20489;-66
2021/01/23 03:54:44;;;;;;;2.83;2.70;;;19.50;41.70;;;;;;4991269;28;20546;-66
2021/01/23 03:57:11;;;;;;;3.53;2.70;;;19.50;41.70;;;;;;4980753;28;20488;-66
2021/01/23 03:59:37;;;;;;;2.80;2.60;;;19.50;41.60;;;;;;4988656;28;20846;-66
2021/01/23 04:02:03;;;;;;;2.70;2.60;;;19.50;41.50;;;;;;4989742;28;20492;-66
2021/01/23 04:04:29;;;;;;;4.17;2.30;;;19.50;41.40;;;;;;4991302;28;20554;-66
2021/01/23 04:06:56;;;;;;;3.03;2.83;;;19.60;41.50;;;;;;4980436;28;20530;-67
2021/01/23 04:09:22;;;;;;;2.47;2.33;;;19.60;41.50;;;;;;4992386;28;20491;-66
2021/01/23 04:11:49;;;;;;;3.20;2.90;;;19.60;41.40;;;;;;4997133;28;20492;-66
2021/01/23 04:14:16;;;;;;;2.70;2.60;;;19.50;41.30;;;;;;4989789;28;20493;-66
2021/01/23 04:16:42;;;;;;;2.73;2.53;;;19.50;41.40;;;;;;4992086;28;20484;-66
2021/01/23 04:19:08;;;;;;;2.93;2.73;;;19.50;41.60;;;;;;4991056;28;20484;-66
2021/01/23 04:21:34;;;;;;;2.67;2.47;;;19.50;41.50;;;;;;4993519;28;20481;-66
2021/01/23 04:24:00;;;;;;;3.20;2.93;;;19.50;41.60;;;;;;4987791;28;20492;-66
2021/01/23 04:26:26;;;;;;;3.23;2.67;;;19.50;41.60;;;;;;4990264;28;20496;-66
2021/01/23 04:28:52;;;;;;;2.70;2.50;;;19.50;41.70;;;;;;4993194;28;20542;-66
2021/01/23 04:31:20;;;;;;;3.47;2.87;;;19.50;41.60;;;;;;4991300;28;20496;-67
2021/01/23 04:33:46;;;;;;;2.83;2.63;;;19.50;41.60;;;;;;4990366;28;20491;-66
2021/01/23 04:36:12;;;;;;;3.03;2.83;;;19.50;41.70;;;;;;4993048;28;20480;-67
2021/01/23 04:38:38;;;;;;;2.97;2.77;;;19.40;41.60;;;;;;4989093;28;20479;-67
2021/01/23 04:41:04;;;;;;;2.77;2.60;;;19.40;41.60;;;;;;4989715;28;20485;-66
2021/01/23 04:43:30;;;;;;;2.57;2.40;;;19.40;41.70;;;;;;4997776;28;20476;-66
2021/01/23 04:45:57;;;;;;;5.90;3.47;;;19.40;41.60;;;;;;4989110;28;20490;-67
2021/01/23 04:48:24;;;;;;;2.70;2.50;;;19.40;41.50;;;;;;4981272;28;20519;-67
2021/01/23 04:50:50;;;;;;;5.60;2.57;;;19.40;41.40;;;;;;5004002;28;20523;-67
2021/01/23 04:53:16;;;;;;;4.33;3.07;;;19.40;41.20;;;;;;4991682;28;20515;-67
2021/01/23 04:55:43;;;;;;;2.70;2.60;;;19.40;41.30;;;;;;4990929;28;20904;-67
2021/01/23 04:58:09;;;;;;;2.23;2.13;;;19.50;41.40;;;;;;4990469;28;20576;-67
2021/01/23 05:00:35;;;;;;;5.80;2.77;;;19.50;41.30;;;;;;4988698;28;20483;-67
2021/01/23 05:03:02;;;;;;;3.57;2.40;;;19.50;41.20;;;;;;4982565;28;20493;-67
2021/01/23 05:05:29;;;;;;;2.93;2.83;;;19.50;41.20;;;;;;4989814;28;20485;-66
2021/01/23 05:08:05;;;;;;;3.17;3.03;;;19.50;41.40;;;;;;4989738;28;20485;-67
2021/01/23 05:10:32;;;;;;;2.90;2.40;;;19.50;41.50;;;;;;4993720;28;20492;-66
2021/01/23 05:12:59;;;;;;;2.70;2.50;;;19.50;41.60;;;;;;4992392;28;20477;-67
2021/01/23 05:15:25;;;;;;;3.30;3.10;;;19.40;41.60;;;;;;4992153;28;20583;-66
2021/01/23 05:17:53;;;;;;;3.07;2.87;;;19.40;41.50;;;;;;4994263;28;20868;-67
2021/01/23 05:20:39;;;;;;;3.17;2.90;;;19.40;41.40;;;;;;4994427;28;20530;-67
2021/01/23 05:23:08;;;;;;;4.20;2.90;;;19.40;41.50;;;;;;4990999;28;21321;-67
2021/01/23 05:25:35;;;;;;;2.90;2.70;;;19.40;41.50;;;;;;4994531;28;20530;-67
2021/01/23 05:28:02;;;;;;;2.87;2.67;;;19.40;41.60;;;;;;4993516;28;20480;-67
2021/01/23 05:30:42;;;;;;;4.20;2.73;;;19.40;41.50;;;;;;4997621;28;20495;-67
2021/01/23 05:33:09;;;;;;;2.90;2.70;;;19.40;41.50;;;;;;4996948;28;20501;-67
2021/01/23 05:35:35;;;;;;;3.67;3.37;;;19.40;41.30;;;;;;5003355;28;20483;-67
2021/01/23 05:40:57;;;;;;;3.33;2.90;;;19.40;41.40;;;;;;5068534;27;20556;-66
2021/01/23 05:43:31;;;;;;;3.13;2.80;;;19.40;41.20;;;;;;5071253;28;20489;-66
2021/01/23 05:45:58;;;;;;;4.53;3.40;;;19.40;41.30;;;;;;5068766;28;20533;-66
2021/01/23 05:48:24;;;;;;;2.77;2.57;;;19.40;41.00;;;;;;5068485;28;20477;-66
2021/01/23 05:50:51;;;;;;;3.40;3.20;;;19.40;41.20;;;;;;5070111;28;20493;-66
2021/01/23 05:53:17;;;;;;;4.40;3.23;;;19.40;41.20;;;;;;5066783;28;20489;-65
2021/01/23 05:55:43;;;;;;;4.43;3.00;;;19.40;41.20;;;;;;5066114;28;20490;-66
2021/01/23 05:58:10;;;;;;;3.77;3.60;;;19.40;41.40;;;;;;5071088;28;20495;-66
2021/01/23 06:00:36;;;;;;;3.20;3.00;;;19.40;41.50;;;;;;5068202;28;20992;-66
2021/01/23 06:03:02;;;;;;;7.77;4.83;;;19.30;41.40;;;;;;5066621;28;20500;-66
2021/01/23 06:05:29;;;;;;;2.77;2.67;;;19.40;41.50;;;;;;5069832;28;21118;-66
2021/01/23 06:07:55;;;;;;;6.40;3.23;;;19.40;41.40;;;;;;5070130;28;20527;-68
2021/01/23 06:10:48;;;;;;;5.20;3.17;;;19.30;40.90;;;;;;5069035;28;20484;-67
2021/01/23 06:13:35;;;;;;;6.20;3.13;;;19.30;40.90;;;;;;5058468;28;20485;-67
2021/01/23 06:16:01;;;;;;;4.00;3.37;;;19.30;40.60;;;;;;5068212;28;21700;-67
2021/01/23 06:18:28;;;;;;;3.33;3.10;;;19.30;40.50;;;;;;5058961;28;20488;-67
2021/01/23 06:20:55;;;;;;;4.43;3.77;;;19.30;40.40;;;;;;5067034;28;20485;-67
2021/01/23 06:23:21;;;;;;;5.63;3.93;;;19.40;40.50;;;;;;5067543;28;20850;-66
2021/01/23 06:26:00;;;;;;;3.57;3.27;;;19.40;40.60;;;;;;5063261;28;20509;-67
2021/01/23 06:28:52;;;;;;;3.80;3.50;;;19.40;40.50;;;;;;5067677;28;20557;-67
2021/01/23 06:31:36;;;;;;;4.90;3.73;;;19.40;40.30;;;;;;5063294;28;20496;-67
2021/01/23 06:34:24;;;;;;;3.97;3.70;;;19.40;40.40;;;;;;5066158;28;20846;-66
2021/01/23 06:36:50;;;;;;;3.57;3.30;;;19.30;40.40;;;;;;5066043;28;20481;-67
2021/01/23 06:39:16;;;;;;;5.97;3.73;;;19.30;40.50;;;;;;5070002;28;20523;-67
2021/01/23 06:41:42;;;;;;;4.60;3.63;;;19.20;40.70;;;;;;5071357;28;20489;-66
2021/01/23 06:44:10;;;;;;;5.50;4.27;;;19.20;40.60;;;;;;5069732;28;20473;-66
2021/01/23 06:46:37;;;;;;;3.90;3.60;;;19.20;40.70;;;;;;5065277;28;20481;-67
2021/01/23 06:49:04;;;;;;;4.17;3.70;;;19.20;40.90;;;;;;5064487;28;20557;-67
2021/01/23 06:51:30;;;;;;;6.23;4.70;;;19.20;41.00;;;;;;5056107;28;20490;-67
2021/01/23 06:54:10;;;;;;;3.23;3.03;;;19.10;40.90;;;;;;5035861;28;20492;-67
2021/01/23 06:56:36;;;;;;;4.70;4.30;;;19.10;41.00;;;;;;5054967;28;20474;-67
2021/01/23 06:59:03;;;;;;;3.70;3.37;;;19.10;40.90;;;;;;5058284;28;20484;-67
2021/01/23 07:01:30;;;;;;;4.70;3.60;;;19.20;41.00;;;;;;5055290;28;20631;-67
2021/01/23 07:03:56;;;;;;;5.53;3.93;;;19.20;40.90;;;;;;5056687;28;20481;-67
2021/01/23 07:06:29;;;;;;;3.20;3.00;;;19.20;40.90;;;;;;5054864;28;20489;-67
2021/01/23 07:08:55;;;;;;;5.60;4.20;;;19.20;40.80;;;;;;5056363;28;21634;-66
2021/01/23 07:11:21;;;;;;;3.73;3.30;;;19.30;40.90;;;;;;5055407;28;20520;-66
2021/01/23 07:14:01;;;;;;;3.57;3.27;;;19.30;40.80;;;;;;5054101;28;20490;-66
2021/01/23 07:16:28;;;;;;;5.13;4.10;;;19.30;40.80;;;;;;5054129;28;20492;-67
2021/01/23 07:18:56;;;;;;;5.33;3.40;;;19.20;40.60;;;;;;5042944;28;21050;-66
2021/01/23 07:21:23;;;;;;;3.50;3.30;;;19.20;40.80;;;;;;5052964;28;20469;-67
2021/01/23 07:23:49;;;;;;;3.77;3.47;;;19.20;40.80;;;;;;5042252;28;20497;-67
2021/01/23 07:26:16;;;;;;;4.10;3.80;;;19.30;40.80;;;;;;5053368;28;20478;-67
2021/01/23 07:28:47;;;;;;;4.13;3.80;;;19.30;40.60;;;;;;5052563;28;20494;-66
2021/01/23 07:31:18;;;;;;;4.20;3.80;;;19.30;40.50;;;;;;5044593;28;21048;-67
2021/01/23 07:33:44;;;;;;;3.13;2.93;;;19.30;40.50;;;;;;5044444;28;20572;-67
2021/01/23 07:36:11;;;;;;;5.60;4.00;;;19.30;40.60;;;;;;5055910;28;21351;-67
2021/01/23 07:38:37;;;;;;;5.13;3.50;;;19.40;40.60;;;;;;5053844;28;20469;-67
2021/01/23 07:41:03;;;;;;;5.03;4.37;;;19.40;40.20;;;;;;5055154;28;20632;-67
2021/01/23 07:43:29;;;;;;;5.33;4.20;;;19.40;40.40;;;;;;5053176;28;21222;-67
2021/01/23 07:45:55;;;;;;;4.73;3.93;;;19.40;40.40;;;;;;5054166;28;20518;-67
2021/01/23 07:48:22;;;;;;;3.43;3.23;;;19.40;40.20;;;;;;5055666;28;20511;-66
2021/01/23 07:50:48;;;;;;;3.93;3.60;;;19.40;40.30;;;;;;5052910;28;20486;-67
2021/01/23 07:53:16;;;;;;;4.03;3.63;;;19.30;40.30;;;;;;5054886;28;20481;-67
2021/01/23 07:55:43;;;;;;;4.20;3.90;;;19.30;40.30;;;;;;5044437;28;20473;-67
2021/01/23 07:58:10;;;;;;;3.37;3.27;;;19.30;40.40;;;;;;5054462;28;20473;-65
2021/01/23 08:00:36;;;;;;;7.30;3.87;;;19.30;40.40;;;;;;5053865;28;21062;-67
2021/01/23 08:03:03;;;;;;;4.03;3.73;;;19.30;40.60;;;;;;5042628;28;21954;-67
2021/01/23 08:05:48;;;;;;;3.87;3.67;;;19.30;40.50;;;;;;5041867;28;20486;-67
2021/01/23 08:08:29;;;;;;;4.87;3.90;;;19.30;40.50;;;;;;5027086;28;20477;-67
2021/01/23 08:10:55;;;;;;;4.33;3.93;;;19.30;40.40;;;;;;5052872;28;20585;-66
2021/01/23 08:13:24;;;;;;;5.80;2.87;;;19.30;40.50;;;;;;5047587;28;20501;-67
2021/01/23 08:15:50;;;;;;;5.97;4.03;;;19.30;40.90;;;;;;5052826;28;20554;-66
2021/01/23 08:18:17;;;;;;;4.70;4.23;;;19.30;40.30;;;;;;5054870;28;20547;-66
2021/01/23 08:20:43;;;;;;;5.10;4.23;;;19.30;40.50;;;;;;5051206;28;20513;-68
2021/01/23 08:23:10;;;;;;;8.60;3.83;;;19.40;40.20;;;;;;5051347;28;20496;-67
2021/01/23 08:25:38;;;;;;;3.50;3.20;;;19.40;39.90;;;;;;5049399;28;20497;-67
2021/01/23 08:28:05;;;;;;;19.43;4.03;;;19.40;40.50;;;;;;5052144;28;20488;-69
2021/01/23 08:30:31;;;;;;;18.10;4.67;;;19.60;42.20;;;;;;5050485;28;20488;-69
2021/01/23 08:32:57;;;;;;;15.80;3.80;;;19.60;42.80;;;;;;5054474;28;20572;-66
2021/01/23 08:35:24;;;;;;;9.27;3.40;;;19.70;42.60;;;;;;5051750;28;20486;-67
2021/01/23 08:37:50;;;;;;;6.40;3.60;;;19.70;40.80;;;;;;5048859;28;20520;-67
2021/01/23 08:40:21;;;;;;;2.97;2.67;;;19.70;41.00;;;;;;5053481;28;20535;-67
2021/01/23 08:42:48;;;;;;;6.33;2.73;;;19.70;40.80;;;;;;5037905;28;20502;-66
2021/01/23 08:45:15;;;;;;;8.33;2.67;;;19.80;40.60;;;;;;5043122;28;20579;-67
2021/01/23 08:47:41;;;;;;;4.70;3.70;;;19.80;40.60;;;;;;5040848;28;20890;-67
2021/01/23 08:50:08;;;;;;;3.53;2.07;;;19.80;40.50;;;;;;5050591;28;20493;-67
2021/01/23 08:52:34;;;;;;;4.40;3.10;;;19.80;40.60;;;;;;5050362;28;20481;-67
2021/01/23 08:55:00;;;;;;;3.43;3.13;;;19.80;40.60;;;;;;5052875;28;20489;-67
2021/01/23 08:57:26;;;;;;;2.67;2.47;;;19.80;40.50;;;;;;5047264;28;20469;-66
2021/01/23 08:59:53;;;;;;;4.40;2.23;;;19.80;40.60;;;;;;5051310;28;20479;-67
2021/01/23 09:02:19;;;;;;;3.70;2.83;;;19.70;40.70;;;;;;5046608;28;20494;-67
2021/01/23 09:04:45;;;;;;;2.47;2.37;;;19.70;40.70;;;;;;5050512;28;21608;-67
2021/01/23 09:07:12;;;;;;;4.10;2.53;;;19.60;40.60;;;;;;5038059;28;20513;-66
2021/01/23 09:09:38;;;;;;;2.77;2.43;;;19.60;40.50;;;;;;5052077;28;20536;-67
2021/01/23 09:12:05;;;;;;;2.40;2.20;;;19.60;40.60;;;;;;5050550;28;20486;-66
2021/01/23 09:14:31;;;;;;;2.53;2.37;;;19.60;40.70;;;;;;5055026;28;20547;-65
2021/01/23 09:16:58;;;;;;;2.60;2.47;;;19.60;40.70;;;;;;5055977;28;20501;-66
2021/01/23 09:19:24;;;;;;;3.03;2.83;;;19.70;40.80;;;;;;5051731;28;21005;-66
2021/01/23 09:21:50;;;;;;;6.23;2.67;;;19.70;41.00;;;;;;5049080;28;20881;-66
2021/01/23 09:24:17;;;;;;;5.53;2.20;;;19.70;41.00;;;;;;5054318;28;21206;-67
2021/01/23 09:26:44;;;;;;;1.83;1.73;;;19.60;41.00;;;;;;5036630;28;20569;-69
2021/01/23 09:29:10;;;;;;;2.93;2.63;;;19.70;42.40;;;;;;5048899;28;20584;-67
2021/01/23 09:31:36;;;;;;;5.10;2.83;;;19.70;41.40;;;;;;5050100;28;20493;-68
2021/01/23 09:34:03;;;;;;;5.13;2.73;;;19.70;41.20;;;;;;5047475;28;20492;-67
2021/01/23 09:36:29;;;;;;;2.93;2.73;;;19.60;41.40;;;;;;5050023;28;20881;-67
2021/01/23 09:38:55;;;;;;;6.87;2.63;;;19.50;41.50;;;;;;5051745;28;20482;-67
2021/01/23 09:41:21;;;;;;;2.27;2.17;;;19.40;41.50;;;;;;5046493;28;20490;-66
2021/01/23 09:43:48;;;;;;;2.70;2.50;;;19.40;40.90;;;;;;5052175;28;20484;-67
2021/01/23 09:46:14;;;;;;;5.37;2.23;;;19.40;41.60;;;;;;5039868;28;20482;-67
2021/01/23 09:48:40;;;;;;;2.60;2.40;;;19.30;41.50;;;;;;5037684;28;20838;-67
2021/01/23 09:51:07;;;;;;;2.77;2.37;;;19.30;41.50;;;;;;5048853;28;20505;-67
2021/01/23 09:53:33;;;;;;;2.60;2.40;;;19.40;41.60;;;;;;5050589;28;20536;-66
2021/01/23 09:55:59;;;;;;;2.87;2.57;;;19.40;41.40;;;;;;5051528;28;20486;-66
2021/01/23 09:58:25;;;;;;;6.80;2.03;;;19.40;41.40;;;;;;5049556;28;20486;-68
2021/01/23 10:00:51;;;;;;;3.90;2.60;;;19.40;41.40;;;;;;5048172;28;20531;-67
2021/01/23 10:03:18;;;;;;;4.70;2.17;;;19.50;41.90;;;;;;5036128;28;21293;-66
2021/01/23 10:05:44;;;;;;;2.40;2.20;;;19.70;41.40;;;;;;5037215;28;21080;-68
2021/01/23 10:08:11;;;;;;;3.90;1.70;;;20.00;41.00;;;;;;5051422;28;20480;-67
2021/01/23 10:10:37;;;;;;;12.23;2.10;;;20.10;41.70;;;;;;5050377;28;21531;-68
2021/01/23 10:13:03;;;;;;;1.83;1.73;;;20.00;42.50;;;;;;5049708;28;21019;-70
2021/01/23 10:15:32;;;;;;;1.77;1.57;;;19.90;43.10;;;;;;5051560;28;20517;-69
2021/01/23 10:17:59;;;;;;;1.63;1.50;;;19.80;43.50;;;;;;5050995;28;20485;-69
2021/01/23 10:20:25;;;;;;;5.37;3.10;;;19.80;44.00;;;;;;5052078;28;20570;-69
2021/01/23 10:22:51;;;;;;;6.00;2.47;;;19.80;45.60;;;;;;5040724;28;20479;-69
2021/01/23 10:25:18;;;;;;;3.80;2.50;;;19.80;45.40;;;;;;5048056;28;20499;-69
2021/01/23 10:27:44;;;;;;;4.10;3.40;;;19.80;45.90;;;;;;5053605;28;20477;-69
2021/01/23 10:30:12;;;;;;;2.60;2.30;;;19.70;45.50;;;;;;5051928;28;21518;-69
2021/01/23 10:32:38;;;;;;;4.80;2.90;;;19.70;44.70;;;;;;5049734;28;20462;-69
2021/01/23 10:35:05;;;;;;;3.13;2.00;;;19.70;45.00;;;;;;5052512;28;20495;-69
2021/01/23 10:37:32;;;;;;;2.97;2.10;;;19.70;45.10;;;;;;5050805;28;20531;-69
2021/01/23 10:39:58;;;;;;;7.80;2.70;;;19.70;45.00;;;;;;5040271;28;21663;-69
2021/01/23 10:42:25;;;;;;;4.27;2.30;;;19.70;45.10;;;;;;5051701;28;20490;-70
2021/01/23 10:44:51;;;;;;;2.30;2.10;;;19.60;45.30;;;;;;5050813;28;20667;-69
2021/01/23 10:47:17;;;;;;;3.50;2.70;;;19.60;45.90;;;;;;5053300;28;20494;-70
2021/01/23 10:49:43;;;;;;;4.50;2.20;;;19.70;45.90;;;;;;5051941;28;20490;-70
2021/01/23 10:52:10;;;;;;;3.00;2.17;;;19.80;46.60;;;;;;5048344;28;20535;-70
2021/01/23 10:54:36;;;;;;;2.67;2.20;;;19.90;48.40;;;;;;5048906;28;20846;-71
2021/01/23 10:57:03;;;;;;;2.70;2.30;;;20.00;48.30;;;;;;5050910;28;20500;-70
2021/01/23 10:59:30;;;;;;;3.33;2.57;;;20.00;46.60;;;;;;5038851;28;20493;-71
2021/01/23 11:01:56;;;;;;;2.80;2.60;;;20.10;48.40;;;;;;5049706;28;20493;-71
2021/01/23 11:04:22;;;;;;;2.73;2.03;;;20.20;48.40;;;;;;5048500;28;20477;-70
2021/01/23 11:06:49;;;;;;;3.63;2.30;;;20.20;47.90;;;;;;5052107;28;20481;-70
2021/01/23 11:09:15;;;;;;;5.83;2.73;;;20.30;47.90;;;;;;5053688;28;20559;-69
2021/01/23 11:11:41;;;;;;;2.07;1.80;;;20.30;47.80;;;;;;5049083;28;20482;-70
2021/01/23 11:14:07;;;;;;;3.37;2.73;;;20.30;47.50;;;;;;5049334;28;20548;-70
2021/01/23 11:16:34;;;;;;;1.93;1.83;;;20.40;48.20;;;;;;5048946;28;20962;-69
2021/01/23 11:19:00;;;;;;;8.50;2.30;;;20.40;47.20;;;;;;5053379;28;20551;-69
2021/01/23 11:21:26;;;;;;;3.00;2.80;;;20.40;47.00;;;;;;5048711;28;20501;-69
2021/01/23 11:23:53;;;;;;;2.87;2.00;;;20.50;48.20;;;;;;5044960;28;20486;-68
2021/01/23 11:26:19;;;;;;;2.00;1.90;;;20.50;47.50;;;;;;5050719;28;20474;-69
2021/01/23 11:28:45;;;;;;;2.40;2.30;;;20.50;47.00;;;;;;5050274;28;20494;-68
2021/01/23 11:31:11;;;;;;;2.73;1.90;;;20.50;47.00;;;;;;5054382;28;20489;-68
2021/01/23 11:33:39;;;;;;;5.63;2.70;;;20.50;47.80;;;;;;5051248;28;20485;-68
2021/01/23 11:36:06;;;;;;;2.40;2.13;;;20.40;46.70;;;;;;5038957;28;20501;-70
2021/01/23 11:38:34;;;;;;;8.50;2.40;;;20.40;46.90;;;;;;5052195;28;20948;-69
2021/01/23 11:41:00;;;;;;;4.60;2.50;;;20.30;47.60;;;;;;5050505;28;20483;-69
2021/01/23 11:43:26;;;;;;;3.27;2.50;;;20.20;46.80;;;;;;5050833;28;20993;-69
2021/01/23 11:45:52;;;;;;;1.80;1.70;;;20.20;46.80;;;;;;5053937;28;21013;-69
2021/01/23 11:48:18;;;;;;;5.47;2.50;;;20.10;46.70;;;;;;5051006;28;21018;-69
2021/01/23 11:50:45;;;;;;;2.23;2.03;;;20.10;47.20;;;;;;5051140;28;20919;-69
2021/01/23 11:53:12;;;;;;;4.40;2.10;;;20.00;47.30;;;;;;5050941;28;20484;-69
2021/01/23 11:55:38;;;;;;;6.40;1.97;;;20.00;47.60;;;;;;5052245;28;20474;-69
2021/01/23 11:58:04;;;;;;;2.13;1.97;;;20.00;48.30;;;;;;5050674;28;20501;-68
2021/01/23 12:00:33;;;;;;;2.03;1.90;;;20.00;48.20;;;;;;5050697;28;21567;-69
2021/01/23 12:02:59;;;;;;;2.77;2.20;;;20.10;48.40;;;;;;5051747;28;20505;-69
2021/01/23 12:05:25;;;;;;;3.10;2.40;;;20.00;48.00;;;;;;5049472;28;20486;-69
2021/01/23 12:07:52;;;;;;;3.03;2.70;;;20.00;48.60;;;;;;5053668;28;20485;-69
2021/01/23 12:10:18;;;;;;;4.80;3.40;;;19.80;48.50;;;;;;5053086;28;20507;-69
2021/01/23 12:12:45;;;;;;;4.47;3.33;;;19.80;48.60;;;;;;5050842;28;20481;-69
2021/01/23 12:15:14;;;;;;;5.43;3.40;;;19.70;48.60;;;;;;5047426;28;20485;-69
2021/01/23 12:17:40;;;;;;;3.80;3.10;;;19.70;48.90;;;;;;5052373;28;20564;-69
2021/01/23 12:20:08;;;;;;;5.97;3.07;;;19.70;48.50;;;;;;5053833;28;20478;-68
2021/01/23 12:22:35;;;;;;;3.63;3.27;;;19.80;49.50;;;;;;5051054;28;20564;-68
2021/01/23 12:25:02;;;;;;;3.10;2.77;;;19.80;50.90;;;;;;5051580;28;20481;-68
2021/01/23 12:27:28;;;;;;;2.90;2.70;;;19.80;49.90;;;;;;5053293;28;21559;-69
2021/01/23 12:29:54;;;;;;;4.10;2.10;;;19.80;52.30;;;;;;5050498;28;20494;-69
2021/01/23 12:32:20;;;;;;;3.00;2.80;;;19.80;52.00;;;;;;5050745;28;21060;-69
2021/01/23 12:34:47;;;;;;;3.73;2.70;;;19.70;52.80;;;;;;5049825;28;20521;-70
2021/01/23 12:37:13;;;;;;;3.20;2.70;;;19.70;53.20;;;;;;5053679;28;20485;-70
2021/01/23 12:39:39;;;;;;;2.47;2.27;;;19.60;54.00;;;;;;5057084;28;20516;-70
2021/01/23 12:42:06;;;;;;;3.37;2.10;;;19.60;53.90;;;;;;5043959;28;20481;-69
2021/01/23 12:44:33;;;;;;;3.60;1.90;;;19.60;53.80;;;;;;5049944;28;20561;-69
2021/01/23 12:46:59;;;;;;;7.67;2.33;;;19.60;53.90;;;;;;5053977;28;21125;-69
2021/01/23 12:49:25;;;;;;;2.47;2.33;;;19.60;54.10;;;;;;5050060;28;20539;-69